ADDS METAR Data INFO
IDs: Format: Raw Decoded Include TAF

Data at: 0128 UTC 23 Nov 2017

METAR for:PACD (Cold Bay Arpt, AK, US)
Text:PACD 230053Z 28033G39KT 7SM FEW028 OVC038 06/03 A2948 RMK AO2 PK WND 27046/0024 RAB01E26 SLP985 P0000 T00610033 $
Temperature: 6.1°C ( 43°F)
Dewpoint: 3.3°C ( 38°F) [RH = 82%]
Pressure (altimeter):29.48 inches Hg ( 998.4 mb) [Sea level pressure: 998.5 mb]
Winds:from the W (280 degrees) at 38 MPH (33 knots; 17.0 m/s) gusting to 45 MPH (39 knots; 20.1 m/s)
Visibility: 7 sm ( 11 km)
Ceiling:3800 feet AGL
Clouds: few clouds at 2800 feet AGL, overcast cloud deck at 3800 feet AGL
QC Flag:SOME DATA ABOVE MAY BE INACCURATE!!!"$" is an indication the sensor requires maintenance.
Text:PACD 230046Z 28032G43KT 8SM FEW022 OVC036 06/03 A2948 RMK AO2 PK WND 27046/0024 RAB01E26 P0000 T00610033 $
Temperature: 6.1°C ( 43°F)
Dewpoint: 3.3°C ( 38°F) [RH = 82%]
Pressure (altimeter):29.48 inches Hg ( 998.4 mb)
Winds:from the W (280 degrees) at 37 MPH (32 knots; 16.5 m/s) gusting to 49 MPH (43 knots; 22.1 m/s)
Visibility: 8 sm ( 13 km)
Ceiling:3600 feet AGL
Clouds: few clouds at 2200 feet AGL, overcast cloud deck at 3600 feet AGL
QC Flag:SOME DATA ABOVE MAY BE INACCURATE!!!"$" is an indication the sensor requires maintenance.
Text:PACD 230022Z 27033G44KT 3SM -RA BR SCT014 BKN023 OVC030 06/05 A2947 RMK AO2 PK WND 28044/0001 RAB01 P0000 T00610050 $
Temperature: 6.1°C ( 43°F)
Dewpoint: 5.0°C ( 41°F) [RH = 93%]
Pressure (altimeter):29.47 inches Hg ( 998.1 mb)
Winds:from the W (270 degrees) at 38 MPH (33 knots; 17.0 m/s) gusting to 51 MPH (44 knots; 22.6 m/s)
Visibility: 3 sm ( 5 km)
Ceiling:2300 feet AGL
Clouds: scattered clouds at 1400 feet AGL, broken clouds at 2300 feet AGL, overcast cloud deck at 3000 feet AGL
Weather:-RA BR (light rain, mist)
QC Flag:SOME DATA ABOVE MAY BE INACCURATE!!!"$" is an indication the sensor requires maintenance.
Text:PACD 230008Z 27030G44KT 1 3/4SM -RA BR FEW012 BKN023 OVC030 07/06 A2947 RMK AO2 PK WND 28044/0001 RAB01 P0000 T00670056 $
Temperature: 6.7°C ( 44°F)
Dewpoint: 5.6°C ( 42°F) [RH = 93%]
Pressure (altimeter):29.47 inches Hg ( 998.1 mb)
Winds:from the W (270 degrees) at 34 MPH (30 knots; 15.4 m/s) gusting to 51 MPH (44 knots; 22.6 m/s)
Visibility: 1.75 sm ( 2.82 km)
Ceiling:2300 feet AGL
Clouds: few clouds at 1200 feet AGL, broken clouds at 2300 feet AGL, overcast cloud deck at 3000 feet AGL
Weather:-RA BR (light rain, mist)
QC Flag:SOME DATA ABOVE MAY BE INACCURATE!!!"$" is an indication the sensor requires maintenance.
Text:PACD 222353Z 27032G45KT 8SM FEW010 OVC029 07/06 A2947 RMK AO2 PK WND 27047/2339 RAE14B22E48 SLP979 P0001 60010 T00720056 10089 20039 55018 $
Temperature: 7.2°C ( 45°F)
Dewpoint: 5.6°C ( 42°F) [RH = 90%]
Pressure (altimeter):29.47 inches Hg ( 998.1 mb) [Sea level pressure: 997.9 mb]
Winds:from the W (270 degrees) at 37 MPH (32 knots; 16.5 m/s) gusting to 52 MPH (45 knots; 23.1 m/s)
Visibility: 8 sm ( 13 km)
Ceiling:2900 feet AGL
Clouds: few clouds at 1000 feet AGL, overcast cloud deck at 2900 feet AGL
QC Flag:SOME DATA ABOVE MAY BE INACCURATE!!!"$" is an indication the sensor requires maintenance.
Text:PACD 222349Z 27033G45KT 8SM FEW010 OVC029 07/06 A2946 RMK AO2 PK WND 27047/2339 RAE14B22E48 P0001 $
Temperature: 7.0°C ( 45°F)
Dewpoint: 6.0°C ( 43°F) [RH = 93%]
Pressure (altimeter):29.46 inches Hg ( 997.7 mb)
Winds:from the W (270 degrees) at 38 MPH (33 knots; 17.0 m/s) gusting to 52 MPH (45 knots; 23.1 m/s)
Visibility: 8 sm ( 13 km)
Ceiling:2900 feet AGL
Clouds: few clouds at 1000 feet AGL, overcast cloud deck at 2900 feet AGL
QC Flag:SOME DATA ABOVE MAY BE INACCURATE!!!"$" is an indication the sensor requires maintenance.
Text:PACD 222327Z 26034G42KT 5SM -RA BR BKN012 BKN018 OVC028 08/07 A2944 RMK AO2 PK WND 25042/2327 RAE14B22 PRESFR P0001 T00780072 $
Temperature: 7.8°C ( 46°F)
Dewpoint: 7.2°C ( 45°F) [RH = 96%]
Pressure (altimeter):29.44 inches Hg ( 997.0 mb)
Winds:from the W (260 degrees) at 39 MPH (34 knots; 17.5 m/s) gusting to 48 MPH (42 knots; 21.6 m/s)
Visibility: 5 sm ( 8 km)
Ceiling:1200 feet AGL
Clouds: broken clouds at 1200 feet AGL, broken clouds at 1800 feet AGL, overcast cloud deck at 2800 feet AGL
Weather:-RA BR (light rain, mist)
QC Flag:SOME DATA ABOVE MAY BE INACCURATE!!!"$" is an indication the sensor requires maintenance.
Text:PACD 222315Z 25030G37KT 9SM SCT013 OVC017 08/07 A2948 RMK AO2 PK WND 25037/2312 RAE14 P0001 T00830072 $
Temperature: 8.3°C ( 47°F)
Dewpoint: 7.2°C ( 45°F) [RH = 93%]
Pressure (altimeter):29.48 inches Hg ( 998.4 mb)
Winds:from the WSW (250 degrees) at 34 MPH (30 knots; 15.4 m/s) gusting to 43 MPH (37 knots; 19.0 m/s)
Visibility: 9 sm ( 14 km)
Ceiling:1700 feet AGL
Clouds: scattered clouds at 1300 feet AGL, overcast cloud deck at 1700 feet AGL
QC Flag:SOME DATA ABOVE MAY BE INACCURATE!!!"$" is an indication the sensor requires maintenance.
Text:PACD 222253Z 24021G28KT 2SM -RA BR FEW020 OVC025 08/07 A2948 RMK AO2 PK WND 15036/2203 WSHFT 2234 SLP984 P0001 T00830072 $
Temperature: 8.3°C ( 47°F)
Dewpoint: 7.2°C ( 45°F) [RH = 93%]
Pressure (altimeter):29.48 inches Hg ( 998.4 mb) [Sea level pressure: 998.4 mb]
Winds:from the WSW (240 degrees) at 24 MPH (21 knots; 10.8 m/s) gusting to 32 MPH (28 knots; 14.4 m/s)
Visibility: 2.00 sm ( 3.22 km)
Ceiling:2500 feet AGL
Clouds: few clouds at 2000 feet AGL, overcast cloud deck at 2500 feet AGL
Weather:-RA BR (light rain, mist)
QC Flag:SOME DATA ABOVE MAY BE INACCURATE!!!"$" is an indication the sensor requires maintenance.
Text:PACD 222251Z 24019G28KT 2 1/2SM -RA BR SCT020 OVC025 08/07 A2949 RMK AO2 PK WND 15036/2203 WSHFT 2234 P0001 $
Temperature: 8.0°C ( 46°F)
Dewpoint: 7.0°C ( 45°F) [RH = 93%]
Pressure (altimeter):29.49 inches Hg ( 998.7 mb)
Winds:from the WSW (240 degrees) at 22 MPH (19 knots; 9.8 m/s) gusting to 32 MPH (28 knots; 14.4 m/s)
Visibility: 2.50 sm ( 4.02 km)
Ceiling:2500 feet AGL
Clouds: scattered clouds at 2000 feet AGL, overcast cloud deck at 2500 feet AGL
Weather:-RA BR (light rain, mist)
QC Flag:SOME DATA ABOVE MAY BE INACCURATE!!!"$" is an indication the sensor requires maintenance.
Text:PACD 222242Z 22019G24KT 10SM -RA SCT025 OVC029 09/07 A2949 RMK AO2 PK WND 15036/2203 P0001 T00890067 $
Temperature: 8.9°C ( 48°F)
Dewpoint: 6.7°C ( 44°F) [RH = 86%]
Pressure (altimeter):29.49 inches Hg ( 998.7 mb)
Winds:from the SW (220 degrees) at 22 MPH (19 knots; 9.8 m/s) gusting to 28 MPH (24 knots; 12.3 m/s)
Visibility:10 or more sm (16+ km)
Ceiling:2900 feet AGL
Clouds: scattered clouds at 2500 feet AGL, overcast cloud deck at 2900 feet AGL
Weather:-RA (light rain)
QC Flag:SOME DATA ABOVE MAY BE INACCURATE!!!"$" is an indication the sensor requires maintenance.
Text:PACD 222153Z 16025G34KT 7SM -RA FEW016 SCT026 OVC036 06/05 A2952 RMK AO2 PK WND 14048/2119 SLP997 P0003 T00560050 $
Temperature: 5.6°C ( 42°F)
Dewpoint: 5.0°C ( 41°F) [RH = 96%]
Pressure (altimeter):29.52 inches Hg ( 999.7 mb) [Sea level pressure: 999.7 mb]
Winds:from the SSE (160 degrees) at 29 MPH (25 knots; 12.9 m/s) gusting to 39 MPH (34 knots; 17.5 m/s)
Visibility: 7 sm ( 11 km)
Ceiling:3600 feet AGL
Clouds: few clouds at 1600 feet AGL, scattered clouds at 2600 feet AGL, overcast cloud deck at 3600 feet AGL
Weather:-RA (light rain)
QC Flag:SOME DATA ABOVE MAY BE INACCURATE!!!"$" is an indication the sensor requires maintenance.
Text:PACD 222053Z AUTO 15037G46KT 6SM -RA BR FEW031 OVC045 04/04 A2955 RMK AO2 PK WND 15048/2026 SLP009 P0004 60005 T00440044 58047 TSNO $
Temperature: 4.4°C ( 40°F)
Dewpoint: 4.4°C ( 40°F) [RH = 100%]
Pressure (altimeter):29.55 inches Hg (1000.8 mb) [Sea level pressure: 1000.9 mb]
Winds:from the SSE (150 degrees) at 43 MPH (37 knots; 19.0 m/s) gusting to 53 MPH (46 knots; 23.7 m/s)
Visibility: 6 sm ( 10 km)
Ceiling:4500 feet AGL
Clouds: few clouds at 3100 feet AGL, overcast cloud deck at 4500 feet AGL
Weather:-RA BR (light rain, mist)
QC Flag:automated observation with no human augmentation; SOME DATA ABOVE MAY BE INACCURATE!!!"$" is an indication the sensor requires maintenance.
Text:PACD 221953Z AUTO 15035G46KT 3SM -RA BR OVC047 04/04 A2961 RMK AO2 PK WND 15053/1901 SLP027 P0001 T00390039 TSNO $
Temperature: 3.9°C ( 39°F)
Dewpoint: 3.9°C ( 39°F) [RH = 100%]
Pressure (altimeter):29.61 inches Hg (1002.8 mb) [Sea level pressure: 1002.7 mb]
Winds:from the SSE (150 degrees) at 40 MPH (35 knots; 18.0 m/s) gusting to 53 MPH (46 knots; 23.7 m/s)
Visibility: 3 sm ( 5 km)
Ceiling:4700 feet AGL
Clouds: overcast cloud deck at 4700 feet AGL
Weather:-RA BR (light rain, mist)
QC Flag:automated observation with no human augmentation; SOME DATA ABOVE MAY BE INACCURATE!!!"$" is an indication the sensor requires maintenance.

TAF for:PACD (Cold Bay Arpt, AK, US) issued at 0012 UTC 23 Nov 2017
Text:PACD 230012Z 2300/2324 27030G40KT 3SM -RA BR BKN015 OVC025
Forecast period:0000 to 0800 UTC 23 November 2017
Forecast type:FROM: standard forecast or significant change
Winds:from the W (270 degrees) at 34 MPH (30 knots; 15.4 m/s) gusting to 46 MPH (40 knots; 20.6 m/s)
Visibility: 3 sm ( 5 km)
Ceiling:1500 feet AGL
Clouds: broken clouds at 1500 feet AGL, overcast cloud deck at 2500 feet AGL
Weather:-RA BR (light rain, mist)
Text:TEMPO 2300/2304 27020G30KT 1SM -RA BR SCT015 OVC025
Forecast period:0000 to 0400 UTC 23 November 2017
Forecast type:TEMPORARY: The following changes expected for less than half the time period
Winds:from the W (270 degrees) at 23 MPH (20 knots; 10.3 m/s) gusting to 34 MPH (30 knots; 15.4 m/s)
Visibility: 1.00 sm ( 1.61 km)
Ceiling:2500 feet AGL
Clouds: scattered clouds at 1500 feet AGL, overcast cloud deck at 2500 feet AGL
Weather:-RA BR (light rain, mist)
Text:FM230800 28040G55KT 6SM -SHRA BR BKN020 OVC030
Forecast period:0800 to 1200 UTC 23 November 2017
Forecast type:FROM: standard forecast or significant change
Winds:from the W (280 degrees) at 46 MPH (40 knots; 20.6 m/s) gusting to 63 MPH (55 knots; 28.3 m/s)
Visibility: 6 sm ( 10 km)
Ceiling:2000 feet AGL
Clouds: broken clouds at 2000 feet AGL, overcast cloud deck at 3000 feet AGL
Weather:-SHRA BR (light rain showers, mist)
Text:FM231200 30045G63KT 2SM -SHRASN BR BKN020 OVC030
Forecast period:1200 UTC 23 November 2017 to 0000 UTC 24 November 2017
Forecast type:FROM: standard forecast or significant change
Winds:from the WNW (300 degrees) at 52 MPH (45 knots; 23.1 m/s) gusting to 72 MPH (63 knots; 32.4 m/s)
Visibility: 2.00 sm ( 3.22 km)
Ceiling:2000 feet AGL
Clouds: broken clouds at 2000 feet AGL, overcast cloud deck at 3000 feet AGL
Weather:-SHRA -SHSN BR (light rain showers, light snow showers, mist)